Terminal Aerodrome Forecast
Issued by NWS

Home | Current Version | Previous Version | Graphics & Text | Print | Product List | Glossary On
Versions: 1 2 3 4 5 6 7 8 9 10 11 12 13 14 15 16
000
FTUS45 KGGW 150500
TAFOLF
TAF
KOLF 150531Z 1506/1606 10009KT P6SM BKN130
     FM151500 VRB04KT P6SM BKN140
     FM152100 34009KT P6SM BKN160
     FM160000 02012KT P6SM VCSH OVC080=

USA.gov is the U.S. government's official web portal to all federal, state and local government web resources and services.